Hlavní strana
METAR-TAF:

METAR-TAF

Letiště :

Letiště Orio al Serio

Bergamo, Itálie

zeměpisná šířka: 45-40N, zeměpisná délka: 009-42E, výška: 238 m

Aktuální stav počasí

Zpráva byla vytvořena před 13 minutami, v 04:50 UTC
Severní vítr 6 kt
Teplota 19°C
Vlhkost vzduchu 73%
Tlak 1020 hPa
Viditelnost 10 km a více
Polojasno ve výšce 5000 ft

METAR: LIME 270450Z 36006KT 9999 SCT050 19/14 Q1020 NOSIG

Čas: 07:03 (05:03 UTC)

Předpověď počasí

Zpráva byla vytvořena před 6 hodinami a 3 minutami, v 23:00 UTC
Předpověď platná od 27 v 00 UTC do 27 v 24 UTC
vítr z různých směrů 5 kt
Viditelnost 10 km a více
Polojasno ve výšce 3000 ft
Polojasno ve výšce 6000 ft
Dočasný
od 27 v 03 UTC do 27 v 08 UTC
bouřka, déšť
Dočasný
od 27 v 15 UTC do 27 v 20 UTC
bouřka, déšť

TAF: LIME 262300Z 2700/2724 VRB05KT 9999 SCT030 SCT060 TEMPO 2703/2708 TSRA TEMPO 2715/2720 TSRA

Stav a předpovědi počasí z více než 4 000 letišť (zprávy METAR a TAF).

Červené a žluté tečky na mapě představují dostupné meteorologické stanice.

Když kurzor umístíte na tečku, zobrazí se název stanice.

Pak kliknutím zobrazíte stav a předpověď počasí.

Chcete-li změnit mapu, kliknutím na zelené tlačítko se znaménkem +mapu přiblížíte, kliknutím na zelené tlačítko se znaménkem – mapu oddálíte a kliknutím na zelené šipky přejdete na sousední mapy.


METAR-TAF: